Decoded METAR Reports


Created by using MetarWeather

Station Name Location Elevation Time Temperature Dew Point RH Heat Index Wind Visibility Pressure Sky Condition Weather Remarks METAR
Alexandroupolis  40.85N 25.92E  3m  18/12/2014 15:20:00  15.0C  9.0C  67%  N/A  7 km/h, S (170 degrees)  > 10000m  1014.9 mb  Few clouds at 610m
 
      LGAL 181320Z 17004KT 9999 FEW020 15/09 Q1015 
Andravida (Civ/A  37.92N 21.27E  12m  18/12/2014 15:20:00  16.0C  8.0C  59%  N/A  9 km/h, NW (320 degrees)  > 10000m  1015.9 mb  Few clouds at 610m
Scattered clouds at 5500m
 
      LGAD 181320Z 32005KT 9999 FEW020 SCT180 16/08 Q1016 
Araxos (Civ/Afb)  38.17N 21.42E  15m  18/12/2014 15:20:00  15.0C  12.0C  82%  N/A  6 km/h, Variable  > 10000m  1015.9 mb  Few clouds at 760m
 
      LGRX 181320Z VRB03KT 9999 FEW025 15/12 Q1016 
Athens/Elef-Ven  37.93N 23.95E  94m  18/12/2014 15:20:00  13.0C  9.0C  77%  N/A  13 km/h, NW (320 degrees)  > 10000m  1015.9 mb  Few clouds at 760m
Broken clouds at 2100m
 
      LGAV 181320Z 32007KT 290V350 9999 FEW025 BKN070 13/09 Q1016 NOSIG 
Chios Airport  38.32N 26.12E  4m  18/12/2014 14:50:00  17.0C  8.0C  55%  N/A  7 km/h, WSW (240 degrees)  > 10000m  1013.9 mb  Few clouds at 610m
Scattered clouds at 5500m
 
      LGHI 181250Z 24004KT 9999 FEW020 SCT180 17/08 Q1014 
Elefsis (Hel-Afb  38.07N 23.55E  31m  18/12/2014 15:20:00  13.0C  10.0C  82%  N/A  7 km/h, NNE (20 degrees)  > 10000m  1014.9 mb  Few clouds at 760m
Scattered clouds at 2100m
Broken clouds at 5500m
 
      LGEL 181320Z 02004KT 9999 FEW025 SCT070 BKN180 13/10 Q1015 
Ioannis Kapodist  39.60N 19.92E  2m  18/12/2014 15:20:00  18.0C  11.0C  64%  N/A  Calm  > 10000m  1015.9 mb  Scattered clouds at 760m
 
      LGKR 181320Z 00000KT 9999 SCT025 18/11 Q1016 NOSIG 
Iraklion (Civ/Af  35.32N 25.17E  39m  18/12/2014 15:20:00  20.0C  11.0C  56%  N/A  6 km/h, Variable  > 10000m  1015.9 mb  Few clouds at 760m
Scattered clouds at 2400m
 
      LGIR 181320Z VRB03KT 9999 FEW025 SCT080 20/11 Q1016 NOSIG 
Kalamata (Hel-Af  37.07N 22.02E  8m  18/12/2014 15:20:00  16.0C  10.0C  68%  N/A  Calm  8000m  1015.9 mb  Few clouds at 460m
Scattered clouds at 2400m
 
Mist
 
   LGKL 181320Z 00000KT 8000 4000SE BR FEW015 SCT080 16/10 Q1016 
Karpathos  35.42N 27.15E  20m  18/12/2014 14:50:00  19.0C  10.0C  56%  N/A  20 km/h, WNW (300 degrees)  > 10000m  1015.9 mb  Scattered clouds at 760m
 
      LGKP 181250Z 30011KT 9999 SCT025 19/10 Q1016 
Kavala/Chrisoupo  40.92N 24.62E  5m  18/12/2014 15:20:00  14.0C  10.0C  77%  N/A  Calm  > 10000m  1014.9 mb  Few clouds at 300m
 
      LGKV 181320Z 00000KT 9999 FEW010 14/10 Q1015 
Kefallinia  38.12N 20.50E  18m  18/12/2014 13:50:00  16.0C  10.0C  68%  N/A  17 km/h, SE (130 degrees)  > 10000m  1015.9 mb  Few clouds at 490m
Scattered clouds at 760m
 
      LGKF 181150Z 13009KT 9999 FEW016 SCT025 16/10 Q1016 
Kos Airport  36.80N 27.08E  130m  18/12/2014 15:20:00  17.0C  9.0C  59%  N/A  7 km/h, WNW (300 degrees)  > 10000m  1015.9 mb  Scattered clouds at 550m
 
      LGKO 181320Z 30004KT 9999 SCT018 17/09 Q1016 
Kozani (Civ/Army  40.28N 21.85E  630m  18/12/2014 15:20:00  9.0C  6.0C  81%  N/A  4 km/h, Variable    1015.9 mb           LGKZ 181320Z AUTO VRB02KT //// // ////// 09/06 Q1016 RE// 
Limnos Island Ar  39.92N 25.23E  5m  18/12/2014 15:20:00  15.0C  11.0C  77%  N/A  13 km/h, N (350 degrees)  > 10000m  1015.9 mb  Few clouds at 460m
 
      LGLM 181320Z 35007KT 9999 FEW015 15/11 Q1016 
Mikonos Island  37.43N 25.35E  120m  18/12/2014 14:50:00  16.0C  9.0C  63%  N/A  7 km/h, WSW (240 degrees)  > 10000m  1015.9 mb  Few clouds at 610m
Scattered clouds at 2400m
Broken clouds at 5500m
 
      LGMK 181250Z 24004KT 9999 FEW020 SCT080 BKN180 16/09 Q1016 
Mitilini  39.05N 26.60E  17m  18/12/2014 15:20:00  17.0C  10.0C  63%  N/A  9 km/h, NNW (330 degrees)  > 10000m  1015.9 mb  Few cumulus clouds at 550m
Scattered clouds at 610m
 
      LGMT 181320Z 33005KT 9999 FEW018TCU SCT020 17/10 Q1016 
Paros  37.00N 25.07E  36m  18/12/2014 14:50:00  14.0C  10.0C  77%  N/A  28 km/h, W (280 degrees)  7000m  1015.9 mb  Few Cumulonimbus clouds at 550m
Scattered cumulus clouds at 610m
Broken clouds at 2400m
 
Rain with Thunderstorm
 
   LGPA 181250Z 28015KT 7000 TSRA FEW018CB SCT020TCU BKN080 14/10 Q1016 
Preveza/Aktion  38.62N 20.77E  4m  18/12/2014 15:20:00  15.0C  9.0C  67%  N/A  Calm  > 10000m  1016.9 mb  Few clouds at 550m
 
      LGPZ 181320Z 00000KT 9999 FEW018 15/09 Q1017 
Rhodes/Diagoras  36.40N 28.08E  5m  18/12/2014 15:20:00  17.0C  13.0C  77%  N/A  7 km/h, NE (50 degrees)  > 10000m  1014.9 mb  Few cumulus clouds at 550m
 
      LGRP 181320Z 05004KT 9999 FEW018TCU 17/13 Q1015 NOSIG 
Samos Airport  37.68N 26.92E  6m  18/12/2014 15:20:00  18.0C  13.0C  73%  N/A  15 km/h, S (170 degrees)  > 10000m  1015.9 mb  Scattered clouds at 610m
Scattered clouds at 3700m
 
      LGSM 181320Z 17008KT 9999 SCT020 SCT120 18/13 Q1016 
Santorini Island  36.40N 25.48E  40m  18/12/2014 15:20:00  17.0C  9.0C  59%  N/A  24 km/h, NW (310 degrees)  > 10000m  1015.9 mb  Few cumulus clouds at 610m
Broken clouds at 760m
 
      LGSR 181320Z 31013KT 9999 FEW020TCU BKN025 17/09 Q1016 
Skiathos Island  39.18N 23.50E  15m  17/12/2014 10:50:00  13.0C  12.0C  94%  N/A  Calm  > 10000m  1015.9 mb  Few clouds at 400m
Scattered clouds at 910m
Broken clouds at 2400m
 
      LGSK 170850Z 00000KT 9999 FEW013 SCT030 BKN080 13/12 Q1016 
Souda/Khania (Af  35.47N 24.12E  150m  18/12/2014 15:20:00  18.0C  7.0C  49%  N/A  17 km/h, NW (320 degrees)  > 10000m  1014.9 mb  Few clouds at 610m
Broken clouds at 2400m
 
      LGSA 181320Z 32009KT 9999 FEW020 BKN080 18/07 Q1015 
Syros  37.42N 24.95E  72m  18/12/2014 15:20:00  15.0C  11.0C  77%  N/A  7 km/h, WSW (250 degrees)    1015.9 mb           LGSO 181320Z AUTO 25004KT //// // ////// 15/11 Q1016 RE// 
Thessaloniki/Mik  40.52N 22.97E  7m  18/12/2014 15:20:00  11.0C  10.0C  94%  N/A  Calm  3000m  1015.9 mb  Few clouds at 150m
 
Mist
Mist
 
   LGTS 181320Z 00000KT 3000 BR FEW005 11/10 Q1016 BECMG 3500 BR 
Zakinthos Airpor  37.75N 20.87E  3m  18/12/2014 14:50:00  17.0C  11.0C  68%  N/A  Calm  > 10000m  1015.9 mb  Few clouds at 550m
Scattered clouds at 760m
 
      LGZA 181250Z 00000KT 9999 FEW018 SCT025 17/11 Q1016